createdAt,value
2019-04-25T00:00:46.809Z,9.60
2019-04-25T00:03:18.011Z,9.50
2019-04-25T00:08:17.336Z,9.50
2019-04-25T00:20:52.183Z,9.30
2019-04-25T00:26:06.675Z,9.10
2019-04-25T00:28:36.436Z,9.10
2019-04-25T00:33:35.876Z,9.00
2019-04-25T00:36:05.755Z,8.90
2019-04-25T00:38:35.701Z,8.90
2019-04-25T00:41:05.772Z,8.90
2019-04-25T00:43:35.712Z,8.90
2019-04-25T00:46:05.601Z,8.90
2019-04-25T00:51:04.723Z,9.00
2019-04-25T00:53:34.531Z,9.00
2019-04-25T00:56:04.420Z,9.00
2019-04-25T00:58:45.193Z,9.10
2019-04-25T01:03:59.508Z,9.10
2019-04-25T01:06:29.309Z,9.20
2019-04-25T01:08:59.412Z,9.20
2019-04-25T01:11:29.353Z,9.40
2019-04-25T01:13:59.154Z,9.40
2019-04-25T01:16:28.949Z,9.40
2019-04-25T01:18:58.753Z,9.40
2019-04-25T01:21:28.580Z,9.40
2019-04-25T01:23:58.503Z,9.40
2019-04-25T01:28:57.733Z,9.40
2019-04-25T01:31:29.384Z,9.40
2019-04-25T01:33:59.324Z,9.40
2019-04-25T01:36:48.653Z,9.40
2019-04-25T01:42:41.468Z,9.40
2019-04-25T01:45:11.420Z,9.40
2019-04-25T01:47:41.301Z,9.40
2019-04-25T01:50:11.628Z,9.50
2019-04-25T01:52:43.342Z,9.50
2019-04-25T01:55:13.809Z,9.50
2019-04-25T01:57:45.246Z,9.60
2019-04-25T02:05:17.464Z,9.70
2019-04-25T02:10:16.564Z,9.80
2019-04-25T02:12:51.393Z,9.90
2019-04-25T02:15:25.850Z,10.00
2019-04-25T02:20:29.839Z,9.90
2019-04-25T02:22:59.989Z,10.00
2019-04-25T02:40:30.889Z,10.30
2019-04-25T02:43:01.989Z,10.20
2019-04-25T02:54:08.177Z,10.20
2019-04-25T03:01:39.361Z,10.20
2019-04-25T03:09:11.594Z,10.30
2019-04-25T03:11:41.505Z,10.20
2019-04-25T03:19:24.352Z,10.20
2019-04-25T03:26:55.053Z,10.10
2019-04-25T03:49:24.313Z,10.00
2019-04-25T03:54:23.833Z,10.10
2019-04-25T03:56:56.049Z,10.00
2019-04-25T04:04:23.876Z,10.10
2019-04-25T04:06:53.898Z,10.00
2019-04-25T04:09:24.159Z,10.00
2019-04-25T04:11:54.119Z,9.90
2019-04-25T04:14:24.103Z,9.90
2019-04-25T04:17:11.621Z,9.90
2019-04-25T04:29:54.764Z,10.10
2019-04-25T04:32:24.686Z,10.10
2019-04-25T04:34:54.489Z,10.30
2019-04-25T04:37:24.301Z,10.30
2019-04-25T04:49:54.009Z,10.60
2019-04-25T04:55:05.286Z,10.60
2019-04-25T04:59:57.402Z,10.70
2019-04-25T05:08:18.782Z,11.20
2019-04-25T05:13:17.997Z,11.60
2019-04-25T05:15:47.777Z,11.70
2019-04-25T05:23:18.862Z,11.80
2019-04-25T05:28:19.338Z,11.80
2019-04-25T05:36:00.432Z,11.90
2019-04-25T05:38:30.573Z,12.10
2019-04-25T05:43:33.792Z,12.50
2019-04-25T05:58:34.241Z,13.30
2019-04-25T06:01:04.129Z,13.20
2019-04-25T06:03:34.073Z,13.30
2019-04-25T06:06:04.025Z,13.20
2019-04-25T06:08:36.572Z,13.20
2019-04-25T06:11:13.740Z,13.40
2019-04-25T06:13:57.265Z,13.60
2019-04-25T06:16:30.973Z,13.80
2019-04-25T06:19:20.858Z,13.80
2019-04-25T06:21:51.605Z,13.80
2019-04-25T06:24:27.349Z,13.80
2019-04-25T06:27:24.309Z,13.70
2019-04-25T06:30:00.967Z,13.70
2019-04-25T06:32:30.875Z,14.20
2019-04-25T06:37:29.917Z,14.50
2019-04-25T06:39:59.893Z,14.50
2019-04-25T06:42:29.874Z,14.30
2019-04-25T06:45:10.025Z,14.20
2019-04-25T07:05:40.889Z,14.80
2019-04-25T07:10:40.268Z,15.30
2019-04-25T07:15:39.685Z,17.00
2019-04-25T07:20:39.121Z,18.40
2019-04-25T07:23:08.945Z,18.90
2019-04-25T07:34:03.877Z,20.90
2019-04-25T07:39:10.395Z,20.60
2019-04-25T07:51:38.072Z,18.10
2019-04-25T07:54:08.020Z,17.20
2019-04-25T07:56:37.952Z,16.30
2019-04-25T07:59:08.040Z,16.30
2019-04-25T08:01:39.103Z,15.60
2019-04-25T08:04:09.154Z,15.50
2019-04-25T08:06:39.036Z,15.50
2019-04-25T08:09:10.729Z,15.50
2019-04-25T08:11:40.966Z,15.50
2019-04-25T08:14:15.832Z,15.60
2019-04-25T08:16:48.641Z,15.80
2019-04-25T08:19:19.276Z,16.30
2019-04-25T08:21:49.724Z,18.50
2019-04-25T08:24:19.972Z,20.10
2019-04-25T08:29:19.161Z,22.80
2019-04-25T08:31:49.281Z,23.60
2019-04-25T08:44:16.082Z,21.40
2019-04-25T08:46:48.708Z,21.10
2019-04-25T08:49:25.601Z,21.20
2019-04-25T08:51:56.079Z,21.40
2019-04-25T08:54:40.858Z,21.30
2019-04-25T08:57:16.446Z,20.50
2019-04-25T08:59:59.409Z,20.10
2019-04-25T09:08:08.802Z,19.00
2019-04-25T09:10:40.113Z,18.90
2019-04-25T09:13:10.086Z,18.70
2019-04-25T09:18:09.447Z,18.70
2019-04-25T09:20:41.649Z,18.70
2019-04-25T09:23:10.725Z,18.60
2019-04-25T09:28:10.397Z,19.50
2019-04-25T09:35:39.564Z,19.90
2019-04-25T09:38:09.617Z,20.20
2019-04-25T09:46:00.876Z,20.30
2019-04-25T09:48:49.775Z,20.30
2019-04-25T09:51:23.594Z,20.40
2019-04-25T09:53:59.768Z,20.60
2019-04-25T09:56:38.206Z,20.80
2019-04-25T09:59:28.003Z,20.80
2019-04-25T10:01:54.332Z,20.70
2019-04-25T10:04:24.285Z,20.50
2019-04-25T10:06:54.249Z,20.40
2019-04-25T10:09:24.197Z,20.40
2019-04-25T10:11:54.649Z,20.30
2019-04-25T10:14:56.921Z,20.20
2019-04-25T10:17:27.032Z,20.10
2019-04-25T10:19:57.221Z,20.10
2019-04-25T10:22:28.204Z,20.20
2019-04-25T10:25:00.637Z,20.20
2019-04-25T10:27:29.624Z,20.40
2019-04-25T10:29:59.514Z,20.50
2019-04-25T10:32:29.457Z,20.50
2019-04-25T10:34:59.260Z,20.60
2019-04-25T10:37:29.220Z,20.70
2019-04-25T10:39:59.097Z,20.50
2019-04-25T10:42:29.137Z,20.40
2019-04-25T10:44:58.944Z,20.50
2019-04-25T10:47:29.605Z,20.80
2019-04-25T10:49:59.932Z,20.90
2019-04-25T10:52:29.948Z,20.90
2019-04-25T10:54:59.825Z,20.90
2019-04-25T10:57:29.811Z,20.70
2019-04-25T11:00:06.140Z,20.80
2019-04-25T11:02:31.209Z,20.90
2019-04-25T11:05:07.577Z,21.10
2019-04-25T11:07:37.700Z,21.10
2019-04-25T11:10:08.079Z,21.20
2019-04-25T11:12:38.021Z,21.00
2019-04-25T11:15:08.164Z,20.90
2019-04-25T11:17:38.097Z,20.80
2019-04-25T11:20:08.048Z,20.70
2019-04-25T11:22:37.989Z,21.00
2019-04-25T11:25:07.967Z,21.20
2019-04-25T11:27:37.826Z,21.40
2019-04-25T11:30:11.534Z,21.60
2019-04-25T11:32:42.174Z,21.70
2019-04-25T11:35:13.930Z,21.60
2019-04-25T11:37:44.012Z,21.70
2019-04-25T11:40:23.436Z,21.40
2019-04-25T11:42:54.599Z,21.30
2019-04-25T11:45:24.768Z,21.30
2019-04-25T11:47:55.309Z,21.30
2019-04-25T11:50:25.660Z,21.40
2019-04-25T11:52:56.313Z,21.60
2019-04-25T11:55:26.547Z,21.60
2019-04-25T11:57:57.005Z,21.80
2019-04-25T12:00:29.128Z,21.70
2019-04-25T12:02:59.000Z,21.80
2019-04-25T12:05:29.056Z,21.80
2019-04-25T12:10:30.288Z,23.40
2019-04-25T12:13:01.137Z,21.20
2019-04-25T12:15:31.021Z,21.60
2019-04-25T12:18:00.818Z,21.60
2019-04-25T12:20:30.872Z,21.60
2019-04-25T12:23:08.458Z,21.40
2019-04-25T12:25:34.004Z,21.50
2019-04-25T12:28:04.600Z,21.40
2019-04-25T12:30:40.048Z,21.60
2019-04-25T12:33:18.433Z,21.70
2019-04-25T12:35:38.642Z,21.80
2019-04-25T12:38:08.590Z,22.00
2019-04-25T12:40:38.544Z,22.10
2019-04-25T12:43:08.644Z,22.20
2019-04-25T12:45:47.843Z,22.30
2019-04-25T12:48:18.224Z,22.40
2019-04-25T12:50:48.122Z,22.40
2019-04-25T12:53:17.929Z,22.60
2019-04-25T12:55:48.957Z,22.70
2019-04-25T12:58:18.846Z,22.50
2019-04-25T13:03:20.266Z,22.50
2019-04-25T13:05:50.643Z,22.40
2019-04-25T13:08:20.469Z,22.60
2019-04-25T13:10:50.349Z,22.90
2019-04-25T13:13:20.158Z,22.90
2019-04-25T13:15:49.967Z,22.90
2019-04-25T13:18:19.887Z,23.00
2019-04-25T13:20:49.848Z,23.00
2019-04-25T13:23:19.812Z,23.00
2019-04-25T13:25:50.269Z,23.40
2019-04-25T13:28:38.868Z,23.40
2019-04-25T13:31:27.909Z,23.10
2019-04-25T13:34:04.664Z,22.70
2019-04-25T13:36:35.824Z,22.70
2019-04-25T13:44:07.899Z,22.40
2019-04-25T13:46:37.900Z,22.40
2019-04-25T13:51:37.488Z,22.60
2019-04-25T13:56:40.521Z,22.80
2019-04-25T13:59:09.148Z,22.80
2019-04-25T14:01:39.712Z,22.50
2019-04-25T14:06:39.269Z,22.50
2019-04-25T14:09:13.295Z,22.50
2019-04-25T14:11:44.099Z,22.60
2019-04-25T14:14:14.495Z,22.70
2019-04-25T14:17:07.084Z,22.70
2019-04-25T14:19:51.655Z,22.60
2019-04-25T14:22:22.221Z,22.50
2019-04-25T14:27:22.290Z,22.50
2019-04-25T14:29:53.643Z,22.50
2019-04-25T14:32:26.841Z,22.50
2019-04-25T14:34:55.515Z,22.50
2019-04-25T14:37:29.261Z,22.50
2019-04-25T14:39:57.057Z,22.40
2019-04-25T14:44:56.244Z,22.40
2019-04-25T14:47:26.045Z,22.30
2019-04-25T14:49:55.924Z,22.30
2019-04-25T14:52:25.950Z,22.20
2019-04-25T14:55:08.700Z,22.20
2019-04-25T14:57:38.572Z,22.00
2019-04-25T15:00:15.380Z,21.90
2019-04-25T15:05:14.504Z,21.80
2019-04-25T15:07:45.082Z,21.80
2019-04-25T15:10:15.221Z,22.00
2019-04-25T15:12:45.301Z,22.10
2019-04-25T15:15:15.277Z,22.10
2019-04-25T15:17:46.794Z,22.10
2019-04-25T15:20:16.841Z,21.90
2019-04-25T15:22:47.129Z,21.90
2019-04-25T15:25:16.928Z,21.90
2019-04-25T15:27:46.840Z,21.90
2019-04-25T15:30:24.989Z,21.90
2019-04-25T15:32:54.861Z,21.90
2019-04-25T15:40:41.189Z,21.70
2019-04-25T15:43:36.218Z,21.60
2019-04-25T15:46:26.067Z,21.60
2019-04-25T15:48:56.033Z,21.40
2019-04-25T15:53:55.330Z,21.10
2019-04-25T15:56:25.548Z,21.10
2019-04-25T15:58:55.336Z,21.00
2019-04-25T16:03:56.400Z,20.90
2019-04-25T16:06:26.644Z,21.00
2019-04-25T16:11:26.613Z,20.90
2019-04-25T16:13:56.404Z,20.90
2019-04-25T16:16:26.875Z,20.70
2019-04-25T16:21:26.760Z,20.70
2019-04-25T16:26:26.980Z,20.70
2019-04-25T16:36:25.600Z,20.70
2019-04-25T16:38:55.397Z,20.70
2019-04-25T16:43:58.706Z,20.40
2019-04-25T16:46:30.083Z,20.20
2019-04-25T16:51:29.349Z,19.70
2019-04-25T16:53:59.497Z,19.40
2019-04-25T16:56:30.520Z,19.00
2019-04-25T17:01:30.382Z,18.80
2019-04-25T17:04:00.392Z,18.70
2019-04-25T17:06:31.340Z,18.60
2019-04-25T17:09:01.377Z,18.40
2019-04-25T17:11:31.970Z,18.40
2019-04-25T17:14:10.476Z,18.30
2019-04-25T17:16:49.488Z,18.20
2019-04-25T17:19:23.338Z,18.00
2019-04-25T17:21:53.217Z,18.00
2019-04-25T17:24:23.092Z,17.90
2019-04-25T17:26:53.157Z,17.80
2019-04-25T17:29:23.368Z,17.60
2019-04-25T17:31:59.836Z,17.60
2019-04-25T17:34:50.161Z,17.60
2019-04-25T17:37:23.484Z,17.50
2019-04-25T17:44:54.349Z,17.40
2019-04-25T17:47:24.170Z,17.20
2019-04-25T17:49:53.982Z,17.10
2019-04-25T17:52:23.920Z,17.00
2019-04-25T17:54:53.742Z,16.90
2019-04-25T17:59:53.096Z,16.80
2019-04-25T18:02:23.293Z,16.70
2019-04-25T18:04:53.100Z,16.60
2019-04-25T18:07:23.051Z,16.60
2019-04-25T18:09:52.858Z,16.60
2019-04-25T18:12:22.740Z,16.50
2019-04-25T18:14:54.622Z,16.50
2019-04-25T18:17:24.493Z,16.50
2019-04-25T18:19:59.195Z,16.50
2019-04-25T18:22:57.658Z,16.30
2019-04-25T18:25:52.928Z,16.20
2019-04-25T18:28:41.804Z,16.10
2019-04-25T18:31:11.697Z,16.10
2019-04-25T18:33:41.850Z,16.00
2019-04-25T18:36:23.880Z,15.90
2019-04-25T18:38:59.746Z,15.90
2019-04-25T18:41:35.403Z,16.00
2019-04-25T18:46:41.106Z,15.90
2019-04-25T18:54:28.055Z,15.80
2019-04-25T18:57:22.772Z,15.70
2019-04-25T19:00:17.772Z,15.70
2019-04-25T19:03:22.222Z,15.60
2019-04-25T19:08:20.065Z,15.50
2019-04-25T19:10:50.115Z,15.50
2019-04-25T19:15:49.595Z,15.50
2019-04-25T19:18:19.465Z,15.40
2019-04-25T19:23:19.093Z,15.40
2019-04-25T19:28:18.265Z,15.30
2019-04-25T19:30:48.153Z,15.20
2019-04-25T19:33:18.896Z,15.20
2019-04-25T19:35:48.773Z,15.20
2019-04-25T19:41:03.286Z,15.10
2019-04-25T19:46:10.931Z,15.10
2019-04-25T19:48:41.331Z,15.10
2019-04-25T19:51:11.193Z,15.00
2019-04-25T19:53:41.772Z,15.00
2019-04-25T19:56:12.107Z,15.10
2019-04-25T20:01:12.065Z,14.90
2019-04-25T20:03:56.813Z,14.90
2019-04-25T20:06:47.516Z,14.90
2019-04-25T20:09:35.465Z,14.90
2019-04-25T20:12:06.953Z,15.00
2019-04-25T20:14:36.752Z,15.00
2019-04-25T20:17:06.553Z,15.00
2019-04-25T20:19:36.441Z,15.00
2019-04-25T20:22:07.288Z,14.90
2019-04-25T20:24:37.097Z,14.80
2019-04-25T20:27:06.965Z,14.70
2019-04-25T20:29:36.769Z,14.70
2019-04-25T20:32:07.218Z,14.70
2019-04-25T20:34:37.453Z,14.70
2019-04-25T20:37:07.261Z,14.60
2019-04-25T20:42:06.369Z,14.50
2019-04-25T20:44:36.636Z,14.50
2019-04-25T20:47:06.811Z,14.50
2019-04-25T20:49:36.775Z,14.50
2019-04-25T20:59:34.521Z,14.50
2019-04-25T21:02:05.052Z,14.50
2019-04-25T21:04:41.765Z,14.50
2019-04-25T21:07:11.912Z,14.40
2019-04-25T21:09:41.730Z,14.30
2019-04-25T21:12:11.596Z,14.30
2019-04-25T21:17:58.370Z,14.30
2019-04-25T21:20:28.408Z,14.30
2019-04-25T21:25:29.069Z,14.50
2019-04-25T21:27:58.848Z,14.50
2019-04-25T21:30:28.653Z,14.60
2019-04-25T21:32:58.457Z,14.60
2019-04-25T21:35:29.565Z,14.60
2019-04-25T21:37:59.637Z,14.60
2019-04-25T21:45:47.000Z,14.50
2019-04-25T21:50:47.485Z,14.40
2019-04-25T21:53:17.296Z,14.40
2019-04-25T22:08:43.560Z,14.10
2019-04-25T22:11:13.693Z,14.00
2019-04-25T22:13:43.773Z,13.90
2019-04-25T22:16:14.268Z,13.80
2019-04-25T22:21:13.983Z,13.80
2019-04-25T22:23:44.152Z,13.80
2019-04-25T22:26:13.940Z,13.70
2019-04-25T22:28:44.233Z,13.60
2019-04-25T22:31:18.624Z,13.50
2019-04-25T22:34:10.608Z,13.60
2019-04-25T22:39:11.407Z,13.50
2019-04-25T22:41:46.264Z,13.50
2019-04-25T22:46:46.001Z,13.50
2019-04-25T22:49:15.861Z,13.50
2019-04-25T22:51:45.737Z,13.50
2019-04-25T22:54:15.906Z,13.50
2019-04-25T22:56:45.773Z,13.50
2019-04-25T22:59:15.852Z,13.50
2019-04-25T23:05:15.771Z,13.50
2019-04-25T23:07:42.599Z,13.40
2019-04-25T23:10:13.063Z,13.40
2019-04-25T23:15:13.028Z,13.30
2019-04-25T23:20:13.777Z,13.30
2019-04-25T23:28:03.611Z,13.20
2019-04-25T23:30:57.518Z,13.10
2019-04-25T23:35:56.821Z,13.10
2019-04-25T23:38:26.697Z,13.10
2019-04-25T23:45:55.394Z,13.00
2019-04-25T23:48:25.394Z,12.90
2019-04-25T23:50:55.215Z,12.90
2019-04-25T23:53:25.164Z,12.90
2019-04-25T23:55:55.289Z,12.80
